sensor_id;sensor_type;location;lat;lon;timestamp;temperature;humidity
65478;SHT31;53678;39.642;22.430;2022-09-14T00:01:00;19.96;57.67
65478;SHT31;53678;39.642;22.430;2022-09-14T00:03:31;20.04;57.65
65478;SHT31;53678;39.642;22.430;2022-09-14T00:06:05;20.10;57.38
65478;SHT31;53678;39.642;22.430;2022-09-14T00:08:32;20.10;57.16
65478;SHT31;53678;39.642;22.430;2022-09-14T00:11:03;19.75;58.76
65478;SHT31;53678;39.642;22.430;2022-09-14T00:13:29;19.55;59.35
65478;SHT31;53678;39.642;22.430;2022-09-14T00:15:55;19.57;59.50
65478;SHT31;53678;39.642;22.430;2022-09-14T00:18:21;19.47;60.07
65478;SHT31;53678;39.642;22.430;2022-09-14T00:20:47;19.46;60.86
65478;SHT31;53678;39.642;22.430;2022-09-14T00:23:12;19.17;62.90
65478;SHT31;53678;39.642;22.430;2022-09-14T00:25:38;19.23;62.79
65478;SHT31;53678;39.642;22.430;2022-09-14T00:28:04;18.95;63.91
65478;SHT31;53678;39.642;22.430;2022-09-14T00:30:30;18.89;64.92
65478;SHT31;53678;39.642;22.430;2022-09-14T00:32:55;19.11;63.69
65478;SHT31;53678;39.642;22.430;2022-09-14T00:35:21;19.03;63.94
65478;SHT31;53678;39.642;22.430;2022-09-14T00:37:48;19.17;63.14
65478;SHT31;53678;39.642;22.430;2022-09-14T00:40:15;19.26;62.40
65478;SHT31;53678;39.642;22.430;2022-09-14T00:42:41;19.27;61.54
65478;SHT31;53678;39.642;22.430;2022-09-14T00:45:14;19.18;61.07
65478;SHT31;53678;39.642;22.430;2022-09-14T00:47:40;19.03;61.60
65478;SHT31;53678;39.642;22.430;2022-09-14T00:50:06;18.69;62.46
65478;SHT31;53678;39.642;22.430;2022-09-14T00:52:35;18.53;62.74
65478;SHT31;53678;39.642;22.430;2022-09-14T00:55:06;18.70;61.85
65478;SHT31;53678;39.642;22.430;2022-09-14T00:57:38;18.53;62.32
65478;SHT31;53678;39.642;22.430;2022-09-14T01:00:07;18.76;62.27
65478;SHT31;53678;39.642;22.430;2022-09-14T01:02:34;18.62;62.51
65478;SHT31;53678;39.642;22.430;2022-09-14T01:05:00;18.00;64.39
65478;SHT31;53678;39.642;22.430;2022-09-14T01:07:44;17.83;65.66
65478;SHT31;53678;39.642;22.430;2022-09-14T01:13:28;18.04;64.99
65478;SHT31;53678;39.642;22.430;2022-09-14T01:16:08;18.41;63.59
65478;SHT31;53678;39.642;22.430;2022-09-14T01:18:43;18.60;62.93
65478;SHT31;53678;39.642;22.430;2022-09-14T01:21:26;18.69;62.82
65478;SHT31;53678;39.642;22.430;2022-09-14T01:24:15;18.51;64.34
65478;SHT31;53678;39.642;22.430;2022-09-14T01:29:17;17.49;67.83
65478;SHT31;53678;39.642;22.430;2022-09-14T01:31:56;17.25;68.37
65478;SHT31;53678;39.642;22.430;2022-09-14T01:34:35;17.38;67.72
65478;SHT31;53678;39.642;22.430;2022-09-14T01:37:10;17.52;66.86
65478;SHT31;53678;39.642;22.430;2022-09-14T01:39:42;17.77;66.27
65478;SHT31;53678;39.642;22.430;2022-09-14T01:42:11;17.90;65.76
65478;SHT31;53678;39.642;22.430;2022-09-14T01:44:41;18.04;65.50
65478;SHT31;53678;39.642;22.430;2022-09-14T01:47:39;18.11;65.15
65478;SHT31;53678;39.642;22.430;2022-09-14T01:50:15;18.18;64.79
65478;SHT31;53678;39.642;22.430;2022-09-14T01:53:06;18.44;63.67
65478;SHT31;53678;39.642;22.430;2022-09-14T01:56:04;18.21;64.41
65478;SHT31;53678;39.642;22.430;2022-09-14T01:58:44;18.12;64.67
65478;SHT31;53678;39.642;22.430;2022-09-14T02:01:19;18.20;63.65
65478;SHT31;53678;39.642;22.430;2022-09-14T02:03:54;18.22;63.42
65478;SHT31;53678;39.642;22.430;2022-09-14T02:06:31;18.15;63.17
65478;SHT31;53678;39.642;22.430;2022-09-14T02:08:59;18.05;63.73
65478;SHT31;53678;39.642;22.430;2022-09-14T02:11:25;17.98;63.48
65478;SHT31;53678;39.642;22.430;2022-09-14T02:13:51;18.04;63.21
65478;SHT31;53678;39.642;22.430;2022-09-14T02:16:17;18.15;62.77
65478;SHT31;53678;39.642;22.430;2022-09-14T02:18:43;17.89;63.38
65478;SHT31;53678;39.642;22.430;2022-09-14T02:21:16;17.90;63.09
65478;SHT31;53678;39.642;22.430;2022-09-14T02:23:42;17.72;63.51
65478;SHT31;53678;39.642;22.430;2022-09-14T02:26:08;17.63;63.75
65478;SHT31;53678;39.642;22.430;2022-09-14T02:28:35;17.57;63.69
65478;SHT31;53678;39.642;22.430;2022-09-14T02:37:09;17.45;63.92
65478;SHT31;53678;39.642;22.430;2022-09-14T02:46:04;17.49;63.38
65478;SHT31;53678;39.642;22.430;2022-09-14T02:51:27;17.67;62.78
65478;SHT31;53678;39.642;22.430;2022-09-14T02:54:00;17.63;62.84
65478;SHT31;53678;39.642;22.430;2022-09-14T02:56:28;17.73;62.60
65478;SHT31;53678;39.642;22.430;2022-09-14T02:58:55;17.73;62.52
65478;SHT31;53678;39.642;22.430;2022-09-14T03:01:22;17.84;62.33
65478;SHT31;53678;39.642;22.430;2022-09-14T03:03:48;17.74;62.46
65478;SHT31;53678;39.642;22.430;2022-09-14T03:06:14;17.77;62.50
65478;SHT31;53678;39.642;22.430;2022-09-14T03:08:40;17.76;62.52
65478;SHT31;53678;39.642;22.430;2022-09-14T03:11:06;17.93;62.32
65478;SHT31;53678;39.642;22.430;2022-09-14T03:13:32;17.97;62.04
65478;SHT31;53678;39.642;22.430;2022-09-14T03:16:10;18.27;61.23
65478;SHT31;53678;39.642;22.430;2022-09-14T03:18:37;18.34;60.89
65478;SHT31;53678;39.642;22.430;2022-09-14T03:21:05;18.27;60.93
65478;SHT31;53678;39.642;22.430;2022-09-14T03:23:35;18.22;61.25
65478;SHT31;53678;39.642;22.430;2022-09-14T03:26:05;18.20;61.24
65478;SHT31;53678;39.642;22.430;2022-09-14T03:28:31;18.25;61.19
65478;SHT31;53678;39.642;22.430;2022-09-14T03:31:00;18.42;61.04
65478;SHT31;53678;39.642;22.430;2022-09-14T03:33:26;18.48;60.75
65478;SHT31;53678;39.642;22.430;2022-09-14T03:35:52;18.58;60.62
65478;SHT31;53678;39.642;22.430;2022-09-14T03:38:17;18.45;60.98
65478;SHT31;53678;39.642;22.430;2022-09-14T03:40:44;18.39;61.13
65478;SHT31;53678;39.642;22.430;2022-09-14T03:43:09;18.21;61.79
65478;SHT31;53678;39.642;22.430;2022-09-14T03:45:37;17.96;63.02
65478;SHT31;53678;39.642;22.430;2022-09-14T03:48:03;18.01;62.78
65478;SHT31;53678;39.642;22.430;2022-09-14T03:50:30;17.72;64.59
65478;SHT31;53678;39.642;22.430;2022-09-14T03:52:56;17.74;64.74
65478;SHT31;53678;39.642;22.430;2022-09-14T03:55:22;17.59;65.36
65478;SHT31;53678;39.642;22.430;2022-09-14T03:57:52;17.43;65.61
65478;SHT31;53678;39.642;22.430;2022-09-14T04:00:18;17.53;65.05
65478;SHT31;53678;39.642;22.430;2022-09-14T04:02:44;17.70;64.46
65478;SHT31;53678;39.642;22.430;2022-09-14T04:05:10;17.83;63.76
65478;SHT31;53678;39.642;22.430;2022-09-14T04:07:36;17.93;63.77
65478;SHT31;53678;39.642;22.430;2022-09-14T04:10:04;17.90;63.88
65478;SHT31;53678;39.642;22.430;2022-09-14T04:12:36;17.84;64.47
65478;SHT31;53678;39.642;22.430;2022-09-14T04:15:06;17.63;65.10
65478;SHT31;53678;39.642;22.430;2022-09-14T04:17:32;17.91;64.67
65478;SHT31;53678;39.642;22.430;2022-09-14T04:19:58;18.52;62.82
65478;SHT31;53678;39.642;22.430;2022-09-14T04:22:24;19.00;61.04
65478;SHT31;53678;39.642;22.430;2022-09-14T04:24:50;18.75;61.43
65478;SHT31;53678;39.642;22.430;2022-09-14T04:27:15;19.23;60.19
65478;SHT31;53678;39.642;22.430;2022-09-14T04:29:41;20.09;57.96
65478;SHT31;53678;39.642;22.430;2022-09-14T04:32:07;20.65;56.25
65478;SHT31;53678;39.642;22.430;2022-09-14T04:34:34;21.15;54.16
65478;SHT31;53678;39.642;22.430;2022-09-14T04:37:00;21.32;53.69
65478;SHT31;53678;39.642;22.430;2022-09-14T04:39:26;21.60;52.80
65478;SHT31;53678;39.642;22.430;2022-09-14T04:41:52;20.94;53.63
65478;SHT31;53678;39.642;22.430;2022-09-14T04:44:18;20.46;55.18
65478;SHT31;53678;39.642;22.430;2022-09-14T04:46:44;19.95;56.11
65478;SHT31;53678;39.642;22.430;2022-09-14T04:49:10;19.61;57.07
65478;SHT31;53678;39.642;22.430;2022-09-14T04:51:36;19.76;57.13
65478;SHT31;53678;39.642;22.430;2022-09-14T04:54:03;20.54;55.81
65478;SHT31;53678;39.642;22.430;2022-09-14T04:56:33;22.07;51.59
65478;SHT31;53678;39.642;22.430;2022-09-14T04:59:01;23.11;48.87
65478;SHT31;53678;39.642;22.430;2022-09-14T05:01:34;23.68;47.75
65478;SHT31;53678;39.642;22.430;2022-09-14T05:04:01;24.03;46.78
65478;SHT31;53678;39.642;22.430;2022-09-14T05:06:29;23.99;47.37
65478;SHT31;53678;39.642;22.430;2022-09-14T05:08:56;23.66;48.20
65478;SHT31;53678;39.642;22.430;2022-09-14T05:11:27;20.77;54.93
65478;SHT31;53678;39.642;22.430;2022-09-14T05:13:55;20.71;54.95
65478;SHT31;53678;39.642;22.430;2022-09-14T05:16:32;21.81;52.49
65478;SHT31;53678;39.642;22.430;2022-09-14T05:19:00;23.08;49.96
65478;SHT31;53678;39.642;22.430;2022-09-14T05:21:27;23.86;47.75
65478;SHT31;53678;39.642;22.430;2022-09-14T05:23:55;24.80;45.89
65478;SHT31;53678;39.642;22.430;2022-09-14T05:26:22;21.91;51.76
65478;SHT31;53678;39.642;22.430;2022-09-14T05:28:51;22.62;49.25
65478;SHT31;53678;39.642;22.430;2022-09-14T05:31:17;23.30;48.51
65478;SHT31;53678;39.642;22.430;2022-09-14T05:33:43;22.45;50.09
65478;SHT31;53678;39.642;22.430;2022-09-14T05:36:09;21.47;52.39
65478;SHT31;53678;39.642;22.430;2022-09-14T05:38:37;22.97;49.25
65478;SHT31;53678;39.642;22.430;2022-09-14T05:41:04;23.51;48.99
65478;SHT31;53678;39.642;22.430;2022-09-14T05:43:31;24.37;45.55
65478;SHT31;53678;39.642;22.430;2022-09-14T05:46:01;23.45;49.08
65478;SHT31;53678;39.642;22.430;2022-09-14T05:48:30;25.84;43.42
65478;SHT31;53678;39.642;22.430;2022-09-14T05:51:01;26.59;42.17
65478;SHT31;53678;39.642;22.430;2022-09-14T05:53:28;26.44;41.89
65478;SHT31;53678;39.642;22.430;2022-09-14T05:56:11;27.06;41.56
65478;SHT31;53678;39.642;22.430;2022-09-14T05:58:39;27.22;40.69
65478;SHT31;53678;39.642;22.430;2022-09-14T06:01:13;25.90;43.26
65478;SHT31;53678;39.642;22.430;2022-09-14T06:03:43;26.56;42.37
65478;SHT31;53678;39.642;22.430;2022-09-14T06:06:11;26.28;42.91
65478;SHT31;53678;39.642;22.430;2022-09-14T06:08:38;26.15;43.32
65478;SHT31;53678;39.642;22.430;2022-09-14T06:11:06;26.00;43.80
65478;SHT31;53678;39.642;22.430;2022-09-14T06:13:33;25.71;44.28
65478;SHT31;53678;39.642;22.430;2022-09-14T06:16:08;24.24;46.48
65478;SHT31;53678;39.642;22.430;2022-09-14T06:18:36;23.95;47.72
65478;SHT31;53678;39.642;22.430;2022-09-14T06:21:02;23.88;48.14
65478;SHT31;53678;39.642;22.430;2022-09-14T06:23:29;23.84;48.27
65478;SHT31;53678;39.642;22.430;2022-09-14T06:25:57;23.31;49.21
65478;SHT31;53678;39.642;22.430;2022-09-14T06:28:24;23.35;49.39
65478;SHT31;53678;39.642;22.430;2022-09-14T06:30:50;23.47;48.68
65478;SHT31;53678;39.642;22.430;2022-09-14T06:33:16;23.90;48.42
65478;SHT31;53678;39.642;22.430;2022-09-14T06:35:43;24.33;47.72
65478;SHT31;53678;39.642;22.430;2022-09-14T06:38:18;24.37;47.77
65478;SHT31;53678;39.642;22.430;2022-09-14T06:40:57;23.64;49.09
65478;SHT31;53678;39.642;22.430;2022-09-14T06:43:25;24.03;47.93
65478;SHT31;53678;39.642;22.430;2022-09-14T06:45:57;24.16;47.66
65478;SHT31;53678;39.642;22.430;2022-09-14T06:48:23;24.19;47.76
65478;SHT31;53678;39.642;22.430;2022-09-14T06:50:49;24.53;47.27
65478;SHT31;53678;39.642;22.430;2022-09-14T06:53:16;24.98;46.34
65478;SHT31;53678;39.642;22.430;2022-09-14T06:55:42;25.19;45.94
65478;SHT31;53678;39.642;22.430;2022-09-14T06:58:10;25.65;45.07
65478;SHT31;53678;39.642;22.430;2022-09-14T07:00:36;25.65;45.15
65478;SHT31;53678;39.642;22.430;2022-09-14T07:03:02;25.33;45.48
65478;SHT31;53678;39.642;22.430;2022-09-14T07:05:28;25.11;45.66
65478;SHT31;53678;39.642;22.430;2022-09-14T07:07:56;25.42;44.31
65478;SHT31;53678;39.642;22.430;2022-09-14T07:10:22;25.79;43.46
65478;SHT31;53678;39.642;22.430;2022-09-14T07:12:48;26.04;42.25
65478;SHT31;53678;39.642;22.430;2022-09-14T07:15:14;26.42;41.33
65478;SHT31;53678;39.642;22.430;2022-09-14T07:17:43;26.73;40.38
65478;SHT31;53678;39.642;22.430;2022-09-14T07:20:09;26.87;39.62
65478;SHT31;53678;39.642;22.430;2022-09-14T07:22:35;27.00;39.94
65478;SHT31;53678;39.642;22.430;2022-09-14T07:25:01;26.63;40.49
65478;SHT31;53678;39.642;22.430;2022-09-14T07:27:27;26.83;40.50
65478;SHT31;53678;39.642;22.430;2022-09-14T07:29:53;26.78;40.81
65478;SHT31;53678;39.642;22.430;2022-09-14T07:32:20;26.78;41.00
65478;SHT31;53678;39.642;22.430;2022-09-14T07:34:46;26.63;41.27
65478;SHT31;53678;39.642;22.430;2022-09-14T07:37:11;26.82;40.67
65478;SHT31;53678;39.642;22.430;2022-09-14T07:39:37;26.86;40.41
65478;SHT31;53678;39.642;22.430;2022-09-14T07:42:03;26.82;40.86
65478;SHT31;53678;39.642;22.430;2022-09-14T07:44:29;26.89;40.40
65478;SHT31;53678;39.642;22.430;2022-09-14T07:46:55;26.75;40.75
65478;SHT31;53678;39.642;22.430;2022-09-14T07:49:20;26.55;41.31
65478;SHT31;53678;39.642;22.430;2022-09-14T07:51:47;26.48;41.40
65478;SHT31;53678;39.642;22.430;2022-09-14T07:54:16;26.56;41.50
65478;SHT31;53678;39.642;22.430;2022-09-14T07:56:43;26.92;40.68
65478;SHT31;53678;39.642;22.430;2022-09-14T07:59:10;27.04;40.08
65478;SHT31;53678;39.642;22.430;2022-09-14T08:01:36;27.17;40.01
65478;SHT31;53678;39.642;22.430;2022-09-14T08:04:03;27.06;40.08
65478;SHT31;53678;39.642;22.430;2022-09-14T08:06:29;27.40;39.96
65478;SHT31;53678;39.642;22.430;2022-09-14T08:08:56;27.20;40.04
65478;SHT31;53678;39.642;22.430;2022-09-14T08:11:28;27.30;39.95
65478;SHT31;53678;39.642;22.430;2022-09-14T08:13:55;27.37;40.07
65478;SHT31;53678;39.642;22.430;2022-09-14T08:16:22;27.17;40.23
65478;SHT31;53678;39.642;22.430;2022-09-14T08:18:53;27.35;40.01
65478;SHT31;53678;39.642;22.430;2022-09-14T08:21:20;27.47;40.18
65478;SHT31;53678;39.642;22.430;2022-09-14T08:23:46;27.08;40.43
65478;SHT31;53678;39.642;22.430;2022-09-14T08:26:15;27.00;40.39
65478;SHT31;53678;39.642;22.430;2022-09-14T08:28:41;27.50;40.04
65478;SHT31;53678;39.642;22.430;2022-09-14T08:31:13;26.99;40.45
65478;SHT31;53678;39.642;22.430;2022-09-14T08:33:41;27.58;39.57
65478;SHT31;53678;39.642;22.430;2022-09-14T08:36:08;27.75;39.46
65478;SHT31;53678;39.642;22.430;2022-09-14T08:38:35;27.80;39.41
65478;SHT31;53678;39.642;22.430;2022-09-14T08:41:18;27.57;39.78
65478;SHT31;53678;39.642;22.430;2022-09-14T08:43:46;27.02;40.78
65478;SHT31;53678;39.642;22.430;2022-09-14T08:46:23;27.07;40.67
65478;SHT31;53678;39.642;22.430;2022-09-14T08:48:50;27.37;40.78
65478;SHT31;53678;39.642;22.430;2022-09-14T08:51:17;27.86;39.41
65478;SHT31;53678;39.642;22.430;2022-09-14T08:53:43;27.24;40.20
65478;SHT31;53678;39.642;22.430;2022-09-14T08:56:16;27.65;40.11
65478;SHT31;53678;39.642;22.430;2022-09-14T09:04:32;28.01;37.40
65478;SHT31;53678;39.642;22.430;2022-09-14T09:09:57;28.43;35.73
65478;SHT31;53678;39.642;22.430;2022-09-14T09:12:39;28.24;36.59
65478;SHT31;53678;39.642;22.430;2022-09-14T09:15:51;28.30;36.64
65478;SHT31;53678;39.642;22.430;2022-09-14T09:21:12;28.27;36.48
65478;SHT31;53678;39.642;22.430;2022-09-14T09:23:39;28.40;36.25
65478;SHT31;53678;39.642;22.430;2022-09-14T09:26:15;28.40;36.49
65478;SHT31;53678;39.642;22.430;2022-09-14T09:28:47;28.49;36.46
65478;SHT31;53678;39.642;22.430;2022-09-14T09:31:15;28.22;36.45
65478;SHT31;53678;39.642;22.430;2022-09-14T09:34:02;28.19;36.55
65478;SHT31;53678;39.642;22.430;2022-09-14T09:36:35;27.57;37.19
65478;SHT31;53678;39.642;22.430;2022-09-14T09:39:03;27.40;37.43
65478;SHT31;53678;39.642;22.430;2022-09-14T09:41:33;27.91;36.52
65478;SHT31;53678;39.642;22.430;2022-09-14T09:44:06;27.65;37.37
65478;SHT31;53678;39.642;22.430;2022-09-14T09:46:50;28.06;36.36
65478;SHT31;53678;39.642;22.430;2022-09-14T09:51:50;28.54;35.61
65478;SHT31;53678;39.642;22.430;2022-09-14T09:54:28;28.59;35.50
65478;SHT31;53678;39.642;22.430;2022-09-14T09:56:58;28.63;35.38
65478;SHT31;53678;39.642;22.430;2022-09-14T09:59:39;28.64;35.18
65478;SHT31;53678;39.642;22.430;2022-09-14T10:05:03;28.92;34.70
65478;SHT31;53678;39.642;22.430;2022-09-14T10:07:32;29.07;34.48
65478;SHT31;53678;39.642;22.430;2022-09-14T10:10:08;29.09;34.30
65478;SHT31;53678;39.642;22.430;2022-09-14T10:12:37;29.09;33.85
65478;SHT31;53678;39.642;22.430;2022-09-14T10:17:39;28.92;33.50
65478;SHT31;53678;39.642;22.430;2022-09-14T10:20:05;28.80;33.93
65478;SHT31;53678;39.642;22.430;2022-09-14T10:22:33;28.67;34.16
65478;SHT31;53678;39.642;22.430;2022-09-14T10:25:02;28.39;33.80
65478;SHT31;53678;39.642;22.430;2022-09-14T10:27:33;28.32;34.27
65478;SHT31;53678;39.642;22.430;2022-09-14T10:30:03;28.53;34.23
65478;SHT31;53678;39.642;22.430;2022-09-14T10:32:31;28.41;34.25
65478;SHT31;53678;39.642;22.430;2022-09-14T10:34:57;28.86;33.67
65478;SHT31;53678;39.642;22.430;2022-09-14T10:40:17;29.26;32.05
65478;SHT31;53678;39.642;22.430;2022-09-14T10:43:07;29.02;32.35
65478;SHT31;53678;39.642;22.430;2022-09-14T10:45:39;28.91;32.97
65478;SHT31;53678;39.642;22.430;2022-09-14T10:54:00;29.02;32.14
65478;SHT31;53678;39.642;22.430;2022-09-14T11:08:03;28.71;32.75
65478;SHT31;53678;39.642;22.430;2022-09-14T11:11:40;28.51;32.52
65478;SHT31;53678;39.642;22.430;2022-09-14T11:13:58;28.61;32.38
65478;SHT31;53678;39.642;22.430;2022-09-14T11:19:41;28.35;32.46
65478;SHT31;53678;39.642;22.430;2022-09-14T11:24:34;29.18;30.90
65478;SHT31;53678;39.642;22.430;2022-09-14T11:27:06;29.22;31.21
65478;SHT31;53678;39.642;22.430;2022-09-14T11:29:39;29.18;31.26
65478;SHT31;53678;39.642;22.430;2022-09-14T11:32:13;29.30;31.30
65478;SHT31;53678;39.642;22.430;2022-09-14T11:35:17;29.38;31.27
65478;SHT31;53678;39.642;22.430;2022-09-14T11:37:58;29.52;31.12
65478;SHT31;53678;39.642;22.430;2022-09-14T11:40:55;29.49;30.94
65478;SHT31;53678;39.642;22.430;2022-09-14T11:43:29;29.63;31.02
65478;SHT31;53678;39.642;22.430;2022-09-14T11:46:06;29.46;31.30
65478;SHT31;53678;39.642;22.430;2022-09-14T11:51:37;29.80;30.69
65478;SHT31;53678;39.642;22.430;2022-09-14T11:54:12;29.88;30.18
65478;SHT31;53678;39.642;22.430;2022-09-14T11:56:41;29.55;30.29
65478;SHT31;53678;39.642;22.430;2022-09-14T12:20:41;28.65;32.37
65478;SHT31;53678;39.642;22.430;2022-09-14T12:43:51;29.69;29.73
65478;SHT31;53678;39.642;22.430;2022-09-14T13:05:22;29.40;31.75
65478;SHT31;53678;39.642;22.430;2022-09-14T13:07:49;29.47;31.91
65478;SHT31;53678;39.642;22.430;2022-09-14T13:10:31;29.46;32.20
65478;SHT31;53678;39.642;22.430;2022-09-14T13:13:00;29.35;32.38
65478;SHT31;53678;39.642;22.430;2022-09-14T13:15:31;29.30;32.33
65478;SHT31;53678;39.642;22.430;2022-09-14T13:18:02;29.35;31.86
65478;SHT31;53678;39.642;22.430;2022-09-14T13:20:31;29.45;31.50
65478;SHT31;53678;39.642;22.430;2022-09-14T13:22:57;29.63;31.71
65478;SHT31;53678;39.642;22.430;2022-09-14T13:25:31;28.68;32.52
65478;SHT31;53678;39.642;22.430;2022-09-14T13:28:00;28.78;32.56
65478;SHT31;53678;39.642;22.430;2022-09-14T13:30:28;28.82;32.93
65478;SHT31;53678;39.642;22.430;2022-09-14T13:32:55;29.14;32.08
65478;SHT31;53678;39.642;22.430;2022-09-14T13:37:57;28.86;32.69
65478;SHT31;53678;39.642;22.430;2022-09-14T13:40:24;28.87;32.26
65478;SHT31;53678;39.642;22.430;2022-09-14T13:42:52;28.92;32.20
65478;SHT31;53678;39.642;22.430;2022-09-14T13:45:19;29.22;32.09
65478;SHT31;53678;39.642;22.430;2022-09-14T13:47:47;29.55;31.38
65478;SHT31;53678;39.642;22.430;2022-09-14T13:50:13;29.66;31.38
65478;SHT31;53678;39.642;22.430;2022-09-14T13:52:41;29.63;31.43
65478;SHT31;53678;39.642;22.430;2022-09-14T13:55:11;29.59;31.83
65478;SHT31;53678;39.642;22.430;2022-09-14T13:58:41;29.72;31.35
65478;SHT31;53678;39.642;22.430;2022-09-14T14:01:00;29.81;31.05
65478;SHT31;53678;39.642;22.430;2022-09-14T14:03:35;29.88;31.12
65478;SHT31;53678;39.642;22.430;2022-09-14T14:06:20;29.80;31.02
65478;SHT31;53678;39.642;22.430;2022-09-14T14:09:02;29.80;31.72
65478;SHT31;53678;39.642;22.430;2022-09-14T14:11:35;29.45;31.51
65478;SHT31;53678;39.642;22.430;2022-09-14T14:14:10;29.23;31.68
65478;SHT31;53678;39.642;22.430;2022-09-14T14:16:37;29.22;31.63
65478;SHT31;53678;39.642;22.430;2022-09-14T14:19:02;29.38;31.40
65478;SHT31;53678;39.642;22.430;2022-09-14T14:21:31;29.32;31.59
65478;SHT31;53678;39.642;22.430;2022-09-14T14:24:36;29.23;31.29
65478;SHT31;53678;39.642;22.430;2022-09-14T14:27:02;29.33;31.18
65478;SHT31;53678;39.642;22.430;2022-09-14T14:29:27;29.29;31.58
65478;SHT31;53678;39.642;22.430;2022-09-14T14:31:54;29.32;31.53
65478;SHT31;53678;39.642;22.430;2022-09-14T14:34:26;29.33;31.44
65478;SHT31;53678;39.642;22.430;2022-09-14T14:36:53;29.20;31.77
65478;SHT31;53678;39.642;22.430;2022-09-14T14:39:23;29.26;31.97
65478;SHT31;53678;39.642;22.430;2022-09-14T14:41:50;29.39;31.32
65478;SHT31;53678;39.642;22.430;2022-09-14T14:44:24;29.39;31.64
65478;SHT31;53678;39.642;22.430;2022-09-14T14:46:53;29.12;31.70
65478;SHT31;53678;39.642;22.430;2022-09-14T14:49:19;29.01;31.75
65478;SHT31;53678;39.642;22.430;2022-09-14T14:51:45;29.08;31.85
65478;SHT31;53678;39.642;22.430;2022-09-14T14:54:12;29.30;31.33
65478;SHT31;53678;39.642;22.430;2022-09-14T14:56:41;29.49;31.58
65478;SHT31;53678;39.642;22.430;2022-09-14T15:01:47;29.47;31.39
65478;SHT31;53678;39.642;22.430;2022-09-14T15:04:13;29.56;31.01
65478;SHT31;53678;39.642;22.430;2022-09-14T15:06:39;29.33;31.33
65478;SHT31;53678;39.642;22.430;2022-09-14T15:09:19;29.15;31.52
65478;SHT31;53678;39.642;22.430;2022-09-14T15:11:46;29.09;31.59
65478;SHT31;53678;39.642;22.430;2022-09-14T15:14:17;29.32;30.89
65478;SHT31;53678;39.642;22.430;2022-09-14T15:16:43;29.47;30.20
65478;SHT31;53678;39.642;22.430;2022-09-14T15:19:10;29.39;30.84
65478;SHT31;53678;39.642;22.430;2022-09-14T15:21:40;29.43;30.59
65478;SHT31;53678;39.642;22.430;2022-09-14T15:24:07;29.49;30.67
65478;SHT31;53678;39.642;22.430;2022-09-14T15:26:33;29.52;30.78
65478;SHT31;53678;39.642;22.430;2022-09-14T15:29:00;29.43;30.65
65478;SHT31;53678;39.642;22.430;2022-09-14T15:31:26;29.46;30.50
65478;SHT31;53678;39.642;22.430;2022-09-14T15:33:52;29.38;30.40
65478;SHT31;53678;39.642;22.430;2022-09-14T15:39:00;29.36;30.54
65478;SHT31;53678;39.642;22.430;2022-09-14T15:41:26;29.53;30.69
65478;SHT31;53678;39.642;22.430;2022-09-14T15:43:51;29.35;30.47
65478;SHT31;53678;39.642;22.430;2022-09-14T15:46:17;29.32;30.38
65478;SHT31;53678;39.642;22.430;2022-09-14T15:48:43;29.36;30.61
65478;SHT31;53678;39.642;22.430;2022-09-14T15:51:09;29.36;30.73
65478;SHT31;53678;39.642;22.430;2022-09-14T15:53:36;29.25;30.53
65478;SHT31;53678;39.642;22.430;2022-09-14T15:56:09;29.19;30.80
65478;SHT31;53678;39.642;22.430;2022-09-14T15:58:35;29.22;30.92
65478;SHT31;53678;39.642;22.430;2022-09-14T16:01:12;29.19;30.94
65478;SHT31;53678;39.642;22.430;2022-09-14T16:03:38;29.14;31.21
65478;SHT31;53678;39.642;22.430;2022-09-14T16:06:08;28.92;35.39
65478;SHT31;53678;39.642;22.430;2022-09-14T16:08:35;28.67;38.84
65478;SHT31;53678;39.642;22.430;2022-09-14T16:11:02;28.35;40.62
65478;SHT31;53678;39.642;22.430;2022-09-14T16:13:28;28.16;41.38
65478;SHT31;53678;39.642;22.430;2022-09-14T16:16:10;28.03;41.88
65478;SHT31;53678;39.642;22.430;2022-09-14T16:18:37;27.93;42.27
65478;SHT31;53678;39.642;22.430;2022-09-14T16:23:38;27.85;42.68
65478;SHT31;53678;39.642;22.430;2022-09-14T16:26:10;27.61;43.05
65478;SHT31;53678;39.642;22.430;2022-09-14T16:28:37;27.54;43.24
65478;SHT31;53678;39.642;22.430;2022-09-14T16:31:12;27.45;43.49
65478;SHT31;53678;39.642;22.430;2022-09-14T16:33:41;27.24;43.92
65478;SHT31;53678;39.642;22.430;2022-09-14T16:36:15;27.11;44.39
65478;SHT31;53678;39.642;22.430;2022-09-14T16:38:44;26.92;44.87
65478;SHT31;53678;39.642;22.430;2022-09-14T16:41:11;26.89;44.94
65478;SHT31;53678;39.642;22.430;2022-09-14T16:43:38;26.87;45.15
65478;SHT31;53678;39.642;22.430;2022-09-14T16:46:15;26.83;45.33
65478;SHT31;53678;39.642;22.430;2022-09-14T16:48:44;26.71;45.46
65478;SHT31;53678;39.642;22.430;2022-09-14T16:51:11;26.58;45.82
65478;SHT31;53678;39.642;22.430;2022-09-14T16:53:41;26.35;46.22
65478;SHT31;53678;39.642;22.430;2022-09-14T16:58:40;26.08;46.82
65478;SHT31;53678;39.642;22.430;2022-09-14T17:01:31;26.13;46.84
65478;SHT31;53678;39.642;22.430;2022-09-14T17:03:59;25.98;47.16
65478;SHT31;53678;39.642;22.430;2022-09-14T17:06:28;25.65;47.74
65478;SHT31;53678;39.642;22.430;2022-09-14T17:08:59;25.71;47.76
65478;SHT31;53678;39.642;22.430;2022-09-14T17:11:26;25.62;47.84
65478;SHT31;53678;39.642;22.430;2022-09-14T17:13:52;25.53;48.23
65478;SHT31;53678;39.642;22.430;2022-09-14T17:16:20;25.25;48.62
65478;SHT31;53678;39.642;22.430;2022-09-14T17:18:48;25.22;48.65
65478;SHT31;53678;39.642;22.430;2022-09-14T17:21:23;25.18;48.67
65478;SHT31;53678;39.642;22.430;2022-09-14T17:23:49;24.90;48.70
65478;SHT31;53678;39.642;22.430;2022-09-14T17:26:18;25.05;48.42
65478;SHT31;53678;39.642;22.430;2022-09-14T17:28:46;24.77;48.83
65478;SHT31;53678;39.642;22.430;2022-09-14T17:31:23;24.70;49.00
65478;SHT31;53678;39.642;22.430;2022-09-14T17:33:52;24.60;49.46
65478;SHT31;53678;39.642;22.430;2022-09-14T17:36:19;24.54;49.89
65478;SHT31;53678;39.642;22.430;2022-09-14T17:38:45;24.54;50.23
65478;SHT31;53678;39.642;22.430;2022-09-14T17:41:14;24.40;50.76
65478;SHT31;53678;39.642;22.430;2022-09-14T17:43:41;24.40;51.09
65478;SHT31;53678;39.642;22.430;2022-09-14T17:46:11;24.30;51.40
65478;SHT31;53678;39.642;22.430;2022-09-14T17:48:40;24.33;51.57
65478;SHT31;53678;39.642;22.430;2022-09-14T17:51:09;24.24;51.89
65478;SHT31;53678;39.642;22.430;2022-09-14T17:53:37;24.17;52.17
65478;SHT31;53678;39.642;22.430;2022-09-14T17:56:05;24.09;52.54